DAL2545 KCLE-KATL
Flight info
| Callsign | DAL2545 |
|---|---|
| Flight time | 1h 21m |
| Altitude | 38000 |
| Route | CAVVS4 APE HLRRY ONDRE1 |
| Aircraft | B739/M-SDE2E3FGHIRWXY/LB1 |
Departure
| Time | 2026-05-03 23:38 |
|---|---|
| Airport | Cleveland Hopkins International Airport (KCLE) |
Arrival
| Time | 2026-05-04 00:59 |
|---|---|
| Airport | Hartsfield Jackson Atlanta International Airport (KATL) |
| Time | Latitude | Longitude | Altitude | Speed | Heading |
|---|---|---|---|---|---|
| 2026-05-03 23:14 | 41.41100 | -81.84100 | 799 ft | 0 kts | 11° |
| 2026-05-03 23:29 | 41.41087 | -81.84104 | 799 ft | 4 kts | 11° |
| 2026-05-03 23:29 | 41.41060 | -81.84111 | 799 ft | 4 kts | 11° |
| 2026-05-03 23:29 | 41.41034 | -81.84118 | 799 ft | 4 kts | 11° |
| 2026-05-03 23:29 | 41.41011 | -81.84123 | 799 ft | 1 kts | 11° |
| 2026-05-03 23:32 | 41.41013 | -81.84123 | 799 ft | 1 kts | 7° |
| 2026-05-03 23:32 | 41.41027 | -81.84142 | 799 ft | 5 kts | 285° |
| 2026-05-03 23:33 | 41.41039 | -81.84198 | 799 ft | 8 kts | 291° |
| 2026-05-03 23:33 | 41.41060 | -81.84275 | 799 ft | 10 kts | 278° |
| 2026-05-03 23:33 | 41.41083 | -81.84362 | 799 ft | 11 kts | 336° |
| 2026-05-03 23:33 | 41.41177 | -81.84370 | 799 ft | 14 kts | 0° |
| 2026-05-03 23:34 | 41.41270 | -81.84357 | 799 ft | 13 kts | 23° |
| 2026-05-03 23:34 | 41.41329 | -81.84303 | 799 ft | 0 kts | 49° |
| 2026-05-03 23:36 | 41.41336 | -81.84292 | 799 ft | 4 kts | 50° |
| 2026-05-03 23:36 | 41.41372 | -81.84235 | 799 ft | 12 kts | 51° |
| 2026-05-03 23:36 | 41.41446 | -81.84146 | 799 ft | 15 kts | 4° |
| 2026-05-03 23:37 | 41.41502 | -81.84234 | 799 ft | 15 kts | 249° |
| 2026-05-03 23:37 | 41.41413 | -81.84390 | 799 ft | 43 kts | 231° |
| 2026-05-03 23:37 | 41.41095 | -81.84896 | 799 ft | 99 kts | 230° |
| 2026-05-03 23:37 | 41.40536 | -81.85782 | 800 ft | 149 kts | 231° |
| 2026-05-03 23:38 | 41.39818 | -81.86916 | 1175 ft | 163 kts | 230° |
| 2026-05-03 23:38 | 41.39059 | -81.88073 | 1842 ft | 167 kts | 227° |
| 2026-05-03 23:38 | 41.38118 | -81.88907 | 2645 ft | 164 kts | 207° |
| 2026-05-03 23:38 | 41.37001 | -81.89467 | 3145 ft | 178 kts | 204° |
| 2026-05-03 23:39 | 41.35745 | -81.90015 | 3430 ft | 205 kts | 203° |
| 2026-05-03 23:39 | 41.34311 | -81.90629 | 3860 ft | 226 kts | 202° |
| 2026-05-03 23:39 | 41.32752 | -81.91299 | 4454 ft | 242 kts | 203° |
| 2026-05-03 23:39 | 41.31126 | -81.92002 | 5221 ft | 249 kts | 203° |
| 2026-05-03 23:40 | 41.29966 | -81.92500 | 5794 ft | 253 kts | 203° |
| 2026-05-03 23:40 | 41.28177 | -81.93270 | 6652 ft | 258 kts | 203° |
| 2026-05-03 23:40 | 41.26455 | -81.94010 | 7451 ft | 261 kts | 203° |
| 2026-05-03 23:40 | 41.24717 | -81.94758 | 8245 ft | 266 kts | 203° |
| 2026-05-03 23:41 | 41.22941 | -81.95520 | 8952 ft | 272 kts | 202° |
| 2026-05-03 23:41 | 41.21122 | -81.96301 | 9662 ft | 277 kts | 202° |
| 2026-05-03 23:41 | 41.19265 | -81.97103 | 10332 ft | 283 kts | 203° |
| 2026-05-03 23:41 | 41.17376 | -81.97995 | 10865 ft | 294 kts | 206° |
| 2026-05-03 23:42 | 41.15392 | -81.99066 | 11177 ft | 314 kts | 207° |
| 2026-05-03 23:42 | 41.13342 | -82.00203 | 11450 ft | 333 kts | 206° |
| 2026-05-03 23:42 | 41.11153 | -82.01394 | 11847 ft | 347 kts | 206° |
| 2026-05-03 23:42 | 41.08882 | -82.02609 | 12365 ft | 356 kts | 206° |
| 2026-05-03 23:43 | 41.06575 | -82.03835 | 13046 ft | 359 kts | 206° |
| 2026-05-03 23:43 | 41.04242 | -82.05071 | 13722 ft | 363 kts | 206° |
| 2026-05-03 23:43 | 41.01885 | -82.06317 | 14377 ft | 366 kts | 206° |
| 2026-05-03 23:43 | 40.99513 | -82.07569 | 15036 ft | 369 kts | 206° |
| 2026-05-03 23:44 | 40.97111 | -82.08837 | 15651 ft | 373 kts | 206° |
| 2026-05-03 23:44 | 40.94696 | -82.10130 | 16263 ft | 376 kts | 208° |
| 2026-05-03 23:44 | 40.92305 | -82.11551 | 16864 ft | 377 kts | 210° |
| 2026-05-03 23:44 | 40.89939 | -82.13061 | 17451 ft | 380 kts | 211° |
| 2026-05-03 23:45 | 40.87546 | -82.14592 | 18022 ft | 383 kts | 211° |
| 2026-05-03 23:45 | 40.85131 | -82.16108 | 18573 ft | 386 kts | 211° |
| 2026-05-03 23:45 | 40.82692 | -82.17622 | 19109 ft | 389 kts | 211° |
| 2026-05-03 23:45 | 40.80226 | -82.19144 | 19607 ft | 393 kts | 211° |
| 2026-05-03 23:46 | 40.77742 | -82.20672 | 20111 ft | 395 kts | 211° |
| 2026-05-03 23:46 | 40.75240 | -82.22208 | 20594 ft | 398 kts | 211° |
| 2026-05-03 23:46 | 40.72720 | -82.23754 | 21041 ft | 401 kts | 212° |
| 2026-05-03 23:46 | 40.70180 | -82.25310 | 21502 ft | 404 kts | 212° |
| 2026-05-03 23:47 | 40.67625 | -82.26874 | 21946 ft | 406 kts | 212° |
| 2026-05-03 23:47 | 40.65055 | -82.28447 | 22372 ft | 409 kts | 212° |
| 2026-05-03 23:47 | 40.62468 | -82.30032 | 22789 ft | 411 kts | 212° |
| 2026-05-03 23:47 | 40.59867 | -82.31622 | 23170 ft | 414 kts | 212° |
| 2026-05-03 23:48 | 40.57245 | -82.33223 | 23544 ft | 416 kts | 213° |
| 2026-05-03 23:48 | 40.54609 | -82.34830 | 23929 ft | 418 kts | 213° |
| 2026-05-03 23:48 | 40.51964 | -82.36443 | 24291 ft | 420 kts | 213° |
| 2026-05-03 23:48 | 40.49297 | -82.38067 | 24649 ft | 422 kts | 213° |
| 2026-05-03 23:49 | 40.46630 | -82.39691 | 24988 ft | 424 kts | 213° |
| 2026-05-03 23:49 | 40.43945 | -82.41329 | 25280 ft | 427 kts | 214° |
| 2026-05-03 23:49 | 40.41249 | -82.42995 | 25606 ft | 429 kts | 213° |
| 2026-05-03 23:49 | 40.38539 | -82.44653 | 25918 ft | 431 kts | 213° |
| 2026-05-03 23:50 | 40.35815 | -82.46311 | 26218 ft | 433 kts | 213° |
| 2026-05-03 23:50 | 40.33965 | -82.47434 | 26417 ft | 434 kts | 213° |
| 2026-05-03 23:50 | 40.30326 | -82.49638 | 26796 ft | 436 kts | 213° |
| 2026-05-03 23:50 | 40.27567 | -82.51306 | 27025 ft | 439 kts | 213° |
| 2026-05-03 23:51 | 40.24784 | -82.52988 | 27294 ft | 441 kts | 213° |
| 2026-05-03 23:51 | 40.21999 | -82.54670 | 27562 ft | 442 kts | 213° |
| 2026-05-03 23:51 | 40.19191 | -82.56343 | 27807 ft | 446 kts | 211° |
| 2026-05-03 23:51 | 40.16205 | -82.57619 | 28041 ft | 459 kts | 202° |
| 2026-05-03 23:52 | 40.13010 | -82.58294 | 28270 ft | 471 kts | 193° |
| 2026-05-03 23:52 | 40.09705 | -82.58411 | 28494 ft | 479 kts | 187° |
| 2026-05-03 23:52 | 40.06352 | -82.58206 | 28702 ft | 484 kts | 184° |
| 2026-05-03 23:52 | 40.02977 | -82.57860 | 28927 ft | 487 kts | 183° |
| 2026-05-03 23:53 | 39.99600 | -82.57508 | 29070 ft | 489 kts | 183° |
| 2026-05-03 23:53 | 39.96194 | -82.57168 | 29258 ft | 491 kts | 184° |
| 2026-05-03 23:53 | 39.92792 | -82.56843 | 29564 ft | 489 kts | 184° |
| 2026-05-03 23:53 | 39.89403 | -82.56526 | 29856 ft | 488 kts | 184° |
| 2026-05-03 23:54 | 39.86018 | -82.56214 | 30089 ft | 488 kts | 184° |
| 2026-05-03 23:54 | 39.82591 | -82.55902 | 30382 ft | 486 kts | 184° |
| 2026-05-03 23:54 | 39.79229 | -82.55594 | 30749 ft | 482 kts | 184° |
| 2026-05-03 23:54 | 39.75891 | -82.55290 | 31074 ft | 480 kts | 184° |
| 2026-05-03 23:55 | 39.72564 | -82.54988 | 31311 ft | 479 kts | 184° |
| 2026-05-03 23:55 | 39.69248 | -82.54689 | 31564 ft | 478 kts | 185° |
| 2026-05-03 23:55 | 39.65932 | -82.54390 | 31821 ft | 476 kts | 185° |
| 2026-05-03 23:55 | 39.62632 | -82.54093 | 32074 ft | 475 kts | 185° |
| 2026-05-03 23:56 | 39.59338 | -82.53798 | 32314 ft | 473 kts | 185° |
| 2026-05-03 23:56 | 39.56055 | -82.53504 | 32549 ft | 472 kts | 185° |
| 2026-05-03 23:56 | 39.52784 | -82.53211 | 32763 ft | 471 kts | 185° |
| 2026-05-03 23:56 | 39.49520 | -82.52919 | 32992 ft | 470 kts | 185° |
| 2026-05-03 23:57 | 39.46269 | -82.52629 | 33228 ft | 468 kts | 185° |
| 2026-05-03 23:57 | 39.43024 | -82.52340 | 33439 ft | 467 kts | 185° |
| 2026-05-03 23:57 | 39.39784 | -82.52051 | 33609 ft | 466 kts | 185° |
| 2026-05-03 23:57 | 39.36593 | -82.51767 | 33823 ft | 465 kts | 185° |
| 2026-05-03 23:58 | 39.33327 | -82.51477 | 34022 ft | 463 kts | 185° |
| 2026-05-03 23:58 | 39.30156 | -82.51195 | 34183 ft | 463 kts | 185° |
| 2026-05-03 23:58 | 39.26896 | -82.50906 | 34310 ft | 464 kts | 185° |
| 2026-05-03 23:58 | 39.23680 | -82.50621 | 34450 ft | 464 kts | 185° |
| 2026-05-03 23:59 | 39.20460 | -82.50336 | 34584 ft | 464 kts | 185° |
| 2026-05-03 23:59 | 39.17243 | -82.50051 | 34716 ft | 464 kts | 185° |
| 2026-05-03 23:59 | 39.10782 | -82.49480 | 34918 ft | 465 kts | 185° |
| 2026-05-04 00:00 | 39.07514 | -82.49191 | 35058 ft | 465 kts | 185° |
| 2026-05-04 00:00 | 39.04331 | -82.48911 | 35245 ft | 463 kts | 185° |
| 2026-05-04 00:00 | 39.01112 | -82.48627 | 35352 ft | 464 kts | 185° |
| 2026-05-04 00:00 | 38.97892 | -82.48344 | 35462 ft | 464 kts | 185° |
| 2026-05-04 00:01 | 38.94633 | -82.48057 | 35582 ft | 464 kts | 185° |
| 2026-05-04 00:01 | 38.91408 | -82.47774 | 35695 ft | 464 kts | 185° |
| 2026-05-04 00:01 | 38.88191 | -82.47492 | 35819 ft | 464 kts | 185° |
| 2026-05-04 00:01 | 38.84968 | -82.47209 | 35912 ft | 464 kts | 185° |
| 2026-05-04 00:02 | 38.81739 | -82.46926 | 36030 ft | 464 kts | 185° |
| 2026-05-04 00:02 | 38.78555 | -82.46647 | 36132 ft | 464 kts | 185° |
| 2026-05-04 00:02 | 38.75309 | -82.46363 | 36301 ft | 462 kts | 185° |
| 2026-05-04 00:02 | 38.72094 | -82.46082 | 36384 ft | 463 kts | 185° |
| 2026-05-04 00:03 | 38.65671 | -82.45522 | 36584 ft | 463 kts | 185° |
| 2026-05-04 00:03 | 38.59239 | -82.44961 | 36794 ft | 462 kts | 185° |
| 2026-05-04 00:04 | 38.56038 | -82.44683 | 36918 ft | 461 kts | 185° |
| 2026-05-04 00:04 | 38.52826 | -82.44404 | 36946 ft | 463 kts | 185° |
| 2026-05-04 00:04 | 38.46385 | -82.43845 | 37042 ft | 465 kts | 185° |
| 2026-05-04 00:05 | 38.39928 | -82.43285 | 37144 ft | 466 kts | 185° |
| 2026-05-04 00:05 | 38.33445 | -82.42724 | 37272 ft | 467 kts | 185° |
| 2026-05-04 00:06 | 38.26952 | -82.42164 | 37341 ft | 469 kts | 185° |
| 2026-05-04 00:06 | 38.20433 | -82.41602 | 37422 ft | 470 kts | 185° |
| 2026-05-04 00:07 | 38.13901 | -82.41040 | 37500 ft | 471 kts | 185° |
| 2026-05-04 00:07 | 38.07349 | -82.40478 | 37567 ft | 472 kts | 185° |
| 2026-05-04 00:08 | 38.00788 | -82.39915 | 37624 ft | 473 kts | 185° |
| 2026-05-04 00:08 | 37.94226 | -82.39354 | 37758 ft | 472 kts | 185° |
| 2026-05-04 00:09 | 37.87655 | -82.38792 | 37771 ft | 473 kts | 185° |
| 2026-05-04 00:09 | 37.82145 | -82.38322 | 37791 ft | 473 kts | 185° |
| 2026-05-04 00:10 | 37.78883 | -82.38047 | 38017 ft | 468 kts | 185° |
| 2026-05-04 00:10 | 37.75638 | -82.37770 | 38058 ft | 466 kts | 184° |
| 2026-05-04 00:10 | 37.69126 | -82.37216 | 38070 ft | 466 kts | 184° |
| 2026-05-04 00:11 | 37.62658 | -82.36667 | 38073 ft | 465 kts | 184° |
| 2026-05-04 00:11 | 37.56196 | -82.36119 | 38071 ft | 465 kts | 184° |
| 2026-05-04 00:12 | 37.49733 | -82.35573 | 38073 ft | 465 kts | 184° |
| 2026-05-04 00:12 | 37.43283 | -82.35028 | 38075 ft | 464 kts | 184° |
| 2026-05-04 00:13 | 37.36839 | -82.34483 | 38077 ft | 464 kts | 184° |
| 2026-05-04 00:13 | 37.30398 | -82.33941 | 38080 ft | 464 kts | 184° |
| 2026-05-04 00:14 | 37.23952 | -82.33400 | 38084 ft | 463 kts | 184° |
| 2026-05-04 00:14 | 37.17572 | -82.32866 | 38086 ft | 463 kts | 184° |
| 2026-05-04 00:15 | 37.11111 | -82.32425 | 38086 ft | 456 kts | 190° |
| 2026-05-04 00:15 | 37.05023 | -82.33778 | 38091 ft | 437 kts | 206° |
| 2026-05-04 00:16 | 36.99393 | -82.36608 | 38090 ft | 431 kts | 211° |
| 2026-05-04 00:16 | 36.93929 | -82.39690 | 38091 ft | 431 kts | 211° |
| 2026-05-04 00:17 | 36.88468 | -82.42768 | 38091 ft | 430 kts | 211° |
| 2026-05-04 00:17 | 36.83019 | -82.45834 | 38091 ft | 430 kts | 211° |
| 2026-05-04 00:18 | 36.77603 | -82.48878 | 38094 ft | 429 kts | 211° |
| 2026-05-04 00:18 | 36.72167 | -82.51951 | 38094 ft | 429 kts | 211° |
| 2026-05-04 00:19 | 36.66735 | -82.55010 | 38095 ft | 428 kts | 211° |
| 2026-05-04 00:19 | 36.61273 | -82.58075 | 38096 ft | 428 kts | 211° |
| 2026-05-04 00:20 | 36.55835 | -82.61119 | 38096 ft | 428 kts | 211° |
| 2026-05-04 00:20 | 36.50419 | -82.64163 | 38096 ft | 428 kts | 211° |
| 2026-05-04 00:21 | 36.44986 | -82.67195 | 38095 ft | 428 kts | 211° |
| 2026-05-04 00:21 | 36.39557 | -82.70214 | 38094 ft | 428 kts | 211° |
| 2026-05-04 00:22 | 36.34118 | -82.73234 | 38092 ft | 428 kts | 211° |
| 2026-05-04 00:22 | 36.28682 | -82.76247 | 38091 ft | 428 kts | 211° |
| 2026-05-04 00:23 | 36.23258 | -82.79277 | 38090 ft | 427 kts | 212° |
| 2026-05-04 00:23 | 36.17897 | -82.82449 | 38090 ft | 427 kts | 212° |
| 2026-05-04 00:24 | 36.12540 | -82.85605 | 38090 ft | 427 kts | 212° |
| 2026-05-04 00:24 | 36.06959 | -82.88882 | 38093 ft | 427 kts | 212° |
| 2026-05-04 00:25 | 36.01597 | -82.92056 | 38094 ft | 427 kts | 212° |
| 2026-05-04 00:25 | 35.96257 | -82.95186 | 38096 ft | 426 kts | 212° |
| 2026-05-04 00:26 | 35.90882 | -82.98323 | 38098 ft | 425 kts | 212° |
| 2026-05-04 00:26 | 35.85468 | -83.01478 | 38099 ft | 425 kts | 212° |
| 2026-05-04 00:27 | 35.80081 | -83.04613 | 38104 ft | 425 kts | 212° |
| 2026-05-04 00:27 | 35.74731 | -83.07727 | 38105 ft | 426 kts | 212° |
| 2026-05-04 00:28 | 35.69383 | -83.10852 | 38107 ft | 425 kts | 212° |
| 2026-05-04 00:28 | 35.64034 | -83.13962 | 38110 ft | 425 kts | 212° |
| 2026-05-04 00:29 | 35.58683 | -83.17061 | 38114 ft | 426 kts | 211° |
| 2026-05-04 00:29 | 35.53318 | -83.20162 | 38118 ft | 426 kts | 211° |
| 2026-05-04 00:30 | 35.48842 | -83.22747 | 37718 ft | 428 kts | 211° |
| 2026-05-04 00:30 | 35.46167 | -83.24291 | 37290 ft | 421 kts | 211° |
| 2026-05-04 00:30 | 35.43494 | -83.25834 | 36834 ft | 416 kts | 211° |
| 2026-05-04 00:31 | 35.40881 | -83.27317 | 36381 ft | 412 kts | 211° |
| 2026-05-04 00:31 | 35.38319 | -83.28762 | 35923 ft | 408 kts | 211° |
| 2026-05-04 00:31 | 35.35757 | -83.30214 | 35455 ft | 404 kts | 211° |
| 2026-05-04 00:31 | 35.33187 | -83.31677 | 34984 ft | 400 kts | 211° |
| 2026-05-04 00:32 | 35.30699 | -83.33086 | 34527 ft | 397 kts | 211° |
| 2026-05-04 00:32 | 35.28203 | -83.34496 | 34069 ft | 394 kts | 211° |
| 2026-05-04 00:32 | 35.25720 | -83.35895 | 33614 ft | 391 kts | 211° |
| 2026-05-04 00:32 | 35.23264 | -83.37278 | 33164 ft | 388 kts | 211° |
| 2026-05-04 00:33 | 35.20824 | -83.38650 | 32716 ft | 385 kts | 211° |
| 2026-05-04 00:33 | 35.15987 | -83.41368 | 31827 ft | 379 kts | 211° |
| 2026-05-04 00:33 | 35.13563 | -83.42729 | 31382 ft | 377 kts | 211° |
| 2026-05-04 00:34 | 35.11221 | -83.44044 | 30950 ft | 375 kts | 211° |
| 2026-05-04 00:34 | 35.08860 | -83.45368 | 30516 ft | 372 kts | 210° |
| 2026-05-04 00:34 | 35.06514 | -83.46689 | 30082 ft | 370 kts | 211° |
| 2026-05-04 00:34 | 35.04159 | -83.48044 | 29646 ft | 368 kts | 211° |
| 2026-05-04 00:35 | 35.01887 | -83.49355 | 29218 ft | 366 kts | 211° |
| 2026-05-04 00:35 | 34.99591 | -83.50677 | 28784 ft | 364 kts | 211° |
| 2026-05-04 00:35 | 34.97308 | -83.51990 | 28352 ft | 362 kts | 211° |
| 2026-05-04 00:35 | 34.95037 | -83.53295 | 27923 ft | 360 kts | 211° |
| 2026-05-04 00:36 | 34.92778 | -83.54594 | 27496 ft | 358 kts | 211° |
| 2026-05-04 00:36 | 34.90504 | -83.55916 | 27065 ft | 356 kts | 211° |
| 2026-05-04 00:36 | 34.88277 | -83.57203 | 26647 ft | 354 kts | 211° |
| 2026-05-04 00:36 | 34.86049 | -83.58485 | 26227 ft | 352 kts | 210° |
| 2026-05-04 00:37 | 34.83833 | -83.59757 | 25808 ft | 351 kts | 210° |
| 2026-05-04 00:37 | 34.81633 | -83.61017 | 25392 ft | 349 kts | 210° |
| 2026-05-04 00:37 | 34.79445 | -83.62269 | 24977 ft | 347 kts | 210° |
| 2026-05-04 00:37 | 34.77259 | -83.63519 | 24563 ft | 345 kts | 210° |
| 2026-05-04 00:38 | 34.75097 | -83.64754 | 24153 ft | 344 kts | 210° |
| 2026-05-04 00:38 | 34.72907 | -83.66005 | 23738 ft | 342 kts | 210° |
| 2026-05-04 00:38 | 34.70760 | -83.67230 | 23327 ft | 340 kts | 210° |
| 2026-05-04 00:38 | 34.68647 | -83.68436 | 22924 ft | 339 kts | 210° |
| 2026-05-04 00:39 | 34.66520 | -83.69649 | 22516 ft | 337 kts | 210° |
| 2026-05-04 00:39 | 34.64372 | -83.70874 | 22102 ft | 336 kts | 210° |
| 2026-05-04 00:39 | 34.62263 | -83.72081 | 21695 ft | 334 kts | 210° |
| 2026-05-04 00:39 | 34.60166 | -83.73289 | 21288 ft | 333 kts | 210° |
| 2026-05-04 00:40 | 34.58078 | -83.74487 | 20883 ft | 331 kts | 210° |
| 2026-05-04 00:40 | 34.55996 | -83.75678 | 20476 ft | 330 kts | 210° |
| 2026-05-04 00:40 | 34.53925 | -83.76860 | 20073 ft | 329 kts | 210° |
| 2026-05-04 00:40 | 34.51822 | -83.78059 | 19662 ft | 327 kts | 210° |
| 2026-05-04 00:41 | 34.49778 | -83.79223 | 19261 ft | 326 kts | 209° |
| 2026-05-04 00:41 | 34.47729 | -83.80389 | 18860 ft | 325 kts | 209° |
| 2026-05-04 00:41 | 34.45651 | -83.81571 | 18451 ft | 323 kts | 209° |
| 2026-05-04 00:41 | 34.43625 | -83.82722 | 18051 ft | 322 kts | 209° |
| 2026-05-04 00:42 | 34.41571 | -83.83890 | 17537 ft | 324 kts | 209° |
| 2026-05-04 00:42 | 34.39525 | -83.85052 | 17121 ft | 323 kts | 209° |
| 2026-05-04 00:42 | 34.37491 | -83.86207 | 16713 ft | 322 kts | 209° |
| 2026-05-04 00:42 | 34.35466 | -83.87355 | 16307 ft | 321 kts | 209° |
| 2026-05-04 00:43 | 34.33451 | -83.88501 | 15901 ft | 319 kts | 208° |
| 2026-05-04 00:43 | 34.31459 | -83.89666 | 15495 ft | 317 kts | 211° |
| 2026-05-04 00:43 | 34.29517 | -83.90916 | 15090 ft | 316 kts | 212° |
| 2026-05-04 00:43 | 34.27585 | -83.92171 | 14684 ft | 315 kts | 211° |
| 2026-05-04 00:44 | 34.25653 | -83.93404 | 14282 ft | 313 kts | 211° |
| 2026-05-04 00:44 | 34.23728 | -83.94625 | 13884 ft | 312 kts | 211° |
| 2026-05-04 00:44 | 34.21813 | -83.95836 | 13491 ft | 311 kts | 211° |
| 2026-05-04 00:44 | 34.19899 | -83.97046 | 13145 ft | 307 kts | 211° |
| 2026-05-04 00:45 | 34.18018 | -83.98241 | 12845 ft | 307 kts | 211° |
| 2026-05-04 00:45 | 34.16135 | -83.99433 | 12524 ft | 304 kts | 211° |
| 2026-05-04 00:45 | 34.14268 | -84.00613 | 12236 ft | 302 kts | 210° |
| 2026-05-04 00:45 | 34.12405 | -84.01788 | 11952 ft | 302 kts | 210° |
| 2026-05-04 00:46 | 34.10549 | -84.02956 | 11672 ft | 301 kts | 210° |
| 2026-05-04 00:46 | 34.08696 | -84.04122 | 11394 ft | 299 kts | 210° |
| 2026-05-04 00:46 | 34.06830 | -84.05297 | 11115 ft | 298 kts | 210° |
| 2026-05-04 00:46 | 34.05000 | -84.06448 | 10841 ft | 296 kts | 210° |
| 2026-05-04 00:47 | 34.03197 | -84.07582 | 10572 ft | 295 kts | 210° |
| 2026-05-04 00:47 | 34.01347 | -84.08685 | 10292 ft | 292 kts | 203° |
| 2026-05-04 00:47 | 33.99376 | -84.09191 | 10025 ft | 289 kts | 185° |
| 2026-05-04 00:47 | 33.97372 | -84.09097 | 9754 ft | 288 kts | 175° |
| 2026-05-04 00:48 | 33.95408 | -84.08723 | 9485 ft | 285 kts | 172° |
| 2026-05-04 00:48 | 33.93469 | -84.08271 | 9221 ft | 283 kts | 170° |
| 2026-05-04 00:48 | 33.91561 | -84.07800 | 9063 ft | 276 kts | 169° |
| 2026-05-04 00:48 | 33.89723 | -84.07315 | 8976 ft | 264 kts | 170° |
| 2026-05-04 00:49 | 33.87946 | -84.06876 | 8776 ft | 258 kts | 170° |
| 2026-05-04 00:49 | 33.86204 | -84.06445 | 8532 ft | 254 kts | 170° |
| 2026-05-04 00:49 | 33.84491 | -84.06019 | 8205 ft | 250 kts | 170° |
| 2026-05-04 00:49 | 33.82777 | -84.05593 | 7725 ft | 252 kts | 170° |
| 2026-05-04 00:50 | 33.81066 | -84.05167 | 7403 ft | 248 kts | 170° |
| 2026-05-04 00:50 | 33.79390 | -84.04750 | 7145 ft | 245 kts | 170° |
| 2026-05-04 00:50 | 33.77729 | -84.04336 | 6897 ft | 244 kts | 170° |
| 2026-05-04 00:50 | 33.76064 | -84.03922 | 6651 ft | 244 kts | 171° |
| 2026-05-04 00:51 | 33.74392 | -84.03505 | 6400 ft | 243 kts | 170° |
| 2026-05-04 00:51 | 33.72765 | -84.03098 | 6154 ft | 238 kts | 170° |
| 2026-05-04 00:51 | 33.71165 | -84.02698 | 5912 ft | 231 kts | 171° |
| 2026-05-04 00:51 | 33.69609 | -84.02311 | 5679 ft | 226 kts | 171° |
| 2026-05-04 00:52 | 33.68082 | -84.01950 | 5476 ft | 222 kts | 175° |
| 2026-05-04 00:52 | 33.66622 | -84.02247 | 5404 ft | 212 kts | 213° |
| 2026-05-04 00:52 | 33.65698 | -84.03551 | 5424 ft | 207 kts | 246° |
| 2026-05-04 00:52 | 33.65267 | -84.05224 | 5462 ft | 217 kts | 260° |
| 2026-05-04 00:53 | 33.65134 | -84.07085 | 5489 ft | 229 kts | 268° |
| 2026-05-04 00:53 | 33.65065 | -84.08992 | 5383 ft | 229 kts | 269° |
| 2026-05-04 00:53 | 33.64999 | -84.10883 | 5197 ft | 222 kts | 269° |
| 2026-05-04 00:53 | 33.64950 | -84.12693 | 5013 ft | 212 kts | 271° |
| 2026-05-04 00:54 | 33.64955 | -84.14444 | 4974 ft | 209 kts | 271° |
| 2026-05-04 00:54 | 33.64960 | -84.16215 | 4934 ft | 214 kts | 271° |
| 2026-05-04 00:54 | 33.64961 | -84.18026 | 4699 ft | 220 kts | 271° |
| 2026-05-04 00:54 | 33.64961 | -84.19895 | 4408 ft | 221 kts | 271° |
| 2026-05-04 00:55 | 33.64962 | -84.21722 | 4115 ft | 216 kts | 271° |
| 2026-05-04 00:55 | 33.64962 | -84.23500 | 3833 ft | 211 kts | 271° |
| 2026-05-04 00:55 | 33.64961 | -84.25218 | 3553 ft | 206 kts | 272° |
| 2026-05-04 00:55 | 33.64961 | -84.26905 | 3283 ft | 197 kts | 272° |
| 2026-05-04 00:56 | 33.64960 | -84.28487 | 3038 ft | 182 kts | 272° |
| 2026-05-04 00:56 | 33.64960 | -84.29497 | 2870 ft | 176 kts | 272° |
| 2026-05-04 00:56 | 33.64959 | -84.31412 | 2565 ft | 166 kts | 272° |
| 2026-05-04 00:56 | 33.64959 | -84.32756 | 2364 ft | 157 kts | 272° |
| 2026-05-04 00:57 | 33.64959 | -84.34057 | 2152 ft | 157 kts | 271° |
| 2026-05-04 00:57 | 33.64958 | -84.34933 | 2016 ft | 158 kts | 271° |
| 2026-05-04 00:57 | 33.64956 | -84.36237 | 1797 ft | 156 kts | 270° |
| 2026-05-04 00:57 | 33.64956 | -84.37527 | 1619 ft | 154 kts | 270° |
| 2026-05-04 00:58 | 33.64959 | -84.38820 | 1402 ft | 156 kts | 270° |
| 2026-05-04 00:58 | 33.64952 | -84.40139 | 1204 ft | 155 kts | 270° |
| 2026-05-04 00:58 | 33.64949 | -84.41423 | 1041 ft | 150 kts | 271° |
| 2026-05-04 00:58 | 33.64959 | -84.42535 | 1035 ft | 109 kts | 268° |
| 2026-05-04 00:59 | 33.64959 | -84.43160 | 1034 ft | 53 kts | 269° |
| 2026-05-04 00:59 | 33.64955 | -84.43525 | 1034 ft | 30 kts | 270° |
| 2026-05-04 00:59 | 33.64950 | -84.43700 | 1034 ft | 13 kts | 248° |
| 2026-05-04 00:59 | 33.64874 | -84.43750 | 1034 ft | 15 kts | 212° |
| 2026-05-04 01:00 | 33.64790 | -84.43825 | 1034 ft | 16 kts | 185° |
| 2026-05-04 01:00 | 33.64655 | -84.43821 | 1034 ft | 21 kts | 180° |
| 2026-05-04 01:00 | 33.64542 | -84.43820 | 1034 ft | 9 kts | 165° |
| 2026-05-04 01:00 | 33.64532 | -84.43768 | 1034 ft | 9 kts | 83° |
| 2026-05-04 01:01 | 33.64544 | -84.43660 | 1034 ft | 15 kts | 88° |
| 2026-05-04 01:01 | 33.64545 | -84.43539 | 1034 ft | 14 kts | 90° |
| 2026-05-04 01:01 | 33.64528 | -84.43445 | 1034 ft | 11 kts | 133° |
| 2026-05-04 01:01 | 33.64459 | -84.43417 | 1034 ft | 10 kts | 161° |
| 2026-05-04 01:02 | 33.64390 | -84.43394 | 1034 ft | 10 kts | 181° |
| 2026-05-04 01:02 | 33.64328 | -84.43388 | 1034 ft | 8 kts | 143° |
| 2026-05-04 01:02 | 33.64315 | -84.43339 | 1034 ft | 5 kts | 90° |
| 2026-05-04 01:02 | 33.64315 | -84.43327 | 1034 ft | 0 kts | 90° |